sensor_id;sensor_type;location;lat;lon;timestamp;pressure;altitude;pressure_sealevel;temperature;humidity
64298;BME280;50639;53.270;7.956;2024-01-25T00:00:16;102244.72;;;6.37;86.31
64298;BME280;50639;53.270;7.956;2024-01-25T00:02:41;102244.72;;;6.36;86.21
64298;BME280;50639;53.270;7.956;2024-01-25T00:05:07;102246.41;;;6.38;86.52
64298;BME280;50639;53.270;7.956;2024-01-25T00:07:33;102242.09;;;6.40;86.54
64298;BME280;50639;53.270;7.956;2024-01-25T00:09:59;102242.19;;;6.34;86.45
64298;BME280;50639;53.270;7.956;2024-01-25T00:12:24;102248.16;;;6.36;85.93
64298;BME280;50639;53.270;7.956;2024-01-25T00:14:49;102255.97;;;6.32;86.46
64298;BME280;50639;53.270;7.956;2024-01-25T00:17:16;102268.03;;;6.30;86.32
64298;BME280;50639;53.270;7.956;2024-01-25T00:19:41;102273.16;;;6.31;87.04
64298;BME280;50639;53.270;7.956;2024-01-25T00:22:07;102272.31;;;6.29;87.13
64298;BME280;50639;53.270;7.956;2024-01-25T00:24:32;102280.00;;;6.31;87.05
64298;BME280;50639;53.270;7.956;2024-01-25T00:26:58;102268.00;;;6.31;86.48
64298;BME280;50639;53.270;7.956;2024-01-25T00:29:24;102261.88;;;6.37;86.69
64298;BME280;50639;53.270;7.956;2024-01-25T00:31:49;102272.22;;;6.34;86.97
64298;BME280;50639;53.270;7.956;2024-01-25T00:34:16;102276.50;;;6.35;86.89
64298;BME280;50639;53.270;7.956;2024-01-25T00:36:41;102269.53;;;6.40;86.72
64298;BME280;50639;53.270;7.956;2024-01-25T00:39:07;102263.59;;;6.36;86.76
64298;BME280;50639;53.270;7.956;2024-01-25T00:41:34;102265.34;;;6.34;87.39
64298;BME280;50639;53.270;7.956;2024-01-25T00:44:00;102270.47;;;6.36;87.47
64298;BME280;50639;53.270;7.956;2024-01-25T00:46:25;102255.09;;;6.33;86.76
64298;BME280;50639;53.270;7.956;2024-01-25T00:48:51;102274.78;;;6.34;86.84
64298;BME280;50639;53.270;7.956;2024-01-25T00:51:21;102277.34;;;6.35;87.26
64298;BME280;50639;53.270;7.956;2024-01-25T00:53:46;102269.63;;;6.35;87.38
64298;BME280;50639;53.270;7.956;2024-01-25T00:56:12;102277.25;;;6.41;87.23
64298;BME280;50639;53.270;7.956;2024-01-25T00:58:38;102275.59;;;6.37;86.98
64298;BME280;50639;53.270;7.956;2024-01-25T01:01:04;102273.00;;;6.39;86.97
64298;BME280;50639;53.270;7.956;2024-01-25T01:03:29;102273.94;;;6.33;86.89
64298;BME280;50639;53.270;7.956;2024-01-25T01:05:55;102274.03;;;6.30;87.24
64298;BME280;50639;53.270;7.956;2024-01-25T01:08:22;102275.81;;;6.25;87.45
64298;BME280;50639;53.270;7.956;2024-01-25T01:10:48;102304.97;;;6.26;87.88
64298;BME280;50639;53.270;7.956;2024-01-25T01:13:13;102293.72;;;6.33;87.82
64298;BME280;50639;53.270;7.956;2024-01-25T01:15:39;102308.31;;;6.31;87.40
64298;BME280;50639;53.270;7.956;2024-01-25T01:18:04;102280.00;;;6.32;88.03
64298;BME280;50639;53.270;7.956;2024-01-25T01:20:30;102291.19;;;6.30;88.21
64298;BME280;50639;53.270;7.956;2024-01-25T01:22:56;102294.66;;;6.26;87.58
64298;BME280;50639;53.270;7.956;2024-01-25T01:25:21;102306.66;;;6.27;88.29
64298;BME280;50639;53.270;7.956;2024-01-25T01:27:47;102304.91;;;6.29;87.69
64298;BME280;50639;53.270;7.956;2024-01-25T01:30:13;102311.84;;;6.25;88.13
64298;BME280;50639;53.270;7.956;2024-01-25T01:32:38;102311.03;;;6.23;88.41
64298;BME280;50639;53.270;7.956;2024-01-25T01:35:04;102315.34;;;6.21;88.59
64298;BME280;50639;53.270;7.956;2024-01-25T01:37:30;102311.81;;;6.27;88.38
64298;BME280;50639;53.270;7.956;2024-01-25T01:39:55;102318.81;;;6.19;88.14
64298;BME280;50639;53.270;7.956;2024-01-25T01:42:21;102321.41;;;6.17;88.31
64298;BME280;50639;53.270;7.956;2024-01-25T01:44:49;102319.63;;;6.22;88.26
64298;BME280;50639;53.270;7.956;2024-01-25T01:47:15;102329.03;;;6.23;88.59
64298;BME280;50639;53.270;7.956;2024-01-25T01:49:41;102320.50;;;6.21;88.53
64298;BME280;50639;53.270;7.956;2024-01-25T01:52:07;102316.22;;;6.20;88.75
64298;BME280;50639;53.270;7.956;2024-01-25T01:54:33;102324.00;;;6.16;88.71
64298;BME280;50639;53.270;7.956;2024-01-25T01:56:59;102310.28;;;6.17;89.09
64298;BME280;50639;53.270;7.956;2024-01-25T01:59:24;102323.22;;;6.14;88.88
64298;BME280;50639;53.270;7.956;2024-01-25T02:01:51;102331.78;;;6.14;88.57
64298;BME280;50639;53.270;7.956;2024-01-25T02:04:17;102340.41;;;6.10;88.70
64298;BME280;50639;53.270;7.956;2024-01-25T02:06:42;102343.84;;;6.11;88.97
64298;BME280;50639;53.270;7.956;2024-01-25T02:09:08;102346.28;;;6.18;88.61
64298;BME280;50639;53.270;7.956;2024-01-25T02:11:35;102356.41;;;6.27;88.59
64298;BME280;50639;53.270;7.956;2024-01-25T02:14:00;102358.91;;;6.32;88.28
64298;BME280;50639;53.270;7.956;2024-01-25T02:16:25;102357.09;;;6.35;88.05
64298;BME280;50639;53.270;7.956;2024-01-25T02:18:51;102357.09;;;6.35;88.47
64298;BME280;50639;53.270;7.956;2024-01-25T02:21:19;102358.75;;;6.39;88.66
64298;BME280;50639;53.270;7.956;2024-01-25T02:23:44;102366.41;;;6.42;87.99
64298;BME280;50639;53.270;7.956;2024-01-25T02:26:10;102363.84;;;6.42;88.36
64298;BME280;50639;53.270;7.956;2024-01-25T02:28:35;102373.22;;;6.47;88.09
64298;BME280;50639;53.270;7.956;2024-01-25T02:31:02;102368.09;;;6.43;88.55
64298;BME280;50639;53.270;7.956;2024-01-25T02:33:28;102362.97;;;6.43;88.11
64298;BME280;50639;53.270;7.956;2024-01-25T02:35:54;102363.72;;;6.50;87.85
64298;BME280;50639;53.270;7.956;2024-01-25T02:38:19;102371.47;;;6.49;87.97
64298;BME280;50639;53.270;7.956;2024-01-25T02:40:44;102379.91;;;6.55;87.92
64298;BME280;50639;53.270;7.956;2024-01-25T02:43:10;102383.34;;;6.54;88.23
64298;BME280;50639;53.270;7.956;2024-01-25T02:45:36;102379.91;;;6.55;88.13
64298;BME280;50639;53.270;7.956;2024-01-25T02:48:01;102373.22;;;6.47;88.12
64298;BME280;50639;53.270;7.956;2024-01-25T02:50:30;102386.94;;;6.46;87.76
64298;BME280;50639;53.270;7.956;2024-01-25T02:52:55;102378.56;;;6.34;87.98
64298;BME280;50639;53.270;7.956;2024-01-25T02:55:21;102378.63;;;6.33;88.42
64298;BME280;50639;53.270;7.956;2024-01-25T02:57:46;102382.97;;;6.28;88.78
64298;BME280;50639;53.270;7.956;2024-01-25T03:00:12;102389.09;;;6.22;89.25
64298;BME280;50639;53.270;7.956;2024-01-25T03:02:38;102395.88;;;6.25;88.98
64298;BME280;50639;53.270;7.956;2024-01-25T03:05:04;102395.13;;;6.20;89.41
64298;BME280;50639;53.270;7.956;2024-01-25T03:07:29;102390.00;;;6.18;89.47
64298;BME280;50639;53.270;7.956;2024-01-25T03:09:55;102397.69;;;6.20;89.41
64298;BME280;50639;53.270;7.956;2024-01-25T03:12:20;102390.78;;;6.23;88.79
64298;BME280;50639;53.270;7.956;2024-01-25T03:14:45;102404.56;;;6.19;89.63
64298;BME280;50639;53.270;7.956;2024-01-25T03:17:11;102390.00;;;6.18;89.15
64298;BME280;50639;53.270;7.956;2024-01-25T03:19:38;102399.41;;;6.19;89.60
64298;BME280;50639;53.270;7.956;2024-01-25T03:22:03;102400.97;;;6.28;89.37
64298;BME280;50639;53.270;7.956;2024-01-25T03:24:28;102407.03;;;6.25;89.77
64298;BME280;50639;53.270;7.956;2024-01-25T03:26:54;102401.72;;;6.34;88.92
64298;BME280;50639;53.270;7.956;2024-01-25T03:29:19;102411.13;;;6.37;88.57
64298;BME280;50639;53.270;7.956;2024-01-25T03:31:45;102407.69;;;6.36;89.13
64298;BME280;50639;53.270;7.956;2024-01-25T03:34:10;102405.22;;;6.32;88.62
64298;BME280;50639;53.270;7.956;2024-01-25T03:36:37;102414.69;;;6.30;89.47
64298;BME280;50639;53.270;7.956;2024-01-25T03:39:04;102416.38;;;6.31;89.03
64298;BME280;50639;53.270;7.956;2024-01-25T03:41:30;102412.16;;;6.25;89.65
64298;BME280;50639;53.270;7.956;2024-01-25T03:43:55;102397.56;;;6.27;89.38
64298;BME280;50639;53.270;7.956;2024-01-25T03:46:21;102402.88;;;6.18;89.57
64298;BME280;50639;53.270;7.956;2024-01-25T03:48:46;102401.28;;;6.10;90.11
64298;BME280;50639;53.270;7.956;2024-01-25T03:51:11;102398.81;;;6.05;90.66
64298;BME280;50639;53.270;7.956;2024-01-25T03:53:37;102403.97;;;6.05;90.76
64298;BME280;50639;53.270;7.956;2024-01-25T03:56:03;102411.72;;;6.00;90.28
64298;BME280;50639;53.270;7.956;2024-01-25T03:58:28;102416.03;;;6.00;90.69
64298;BME280;50639;53.270;7.956;2024-01-25T04:00:54;102414.28;;;6.02;90.53
64298;BME280;50639;53.270;7.956;2024-01-25T04:03:19;102422.09;;;5.96;90.08
64298;BME280;50639;53.270;7.956;2024-01-25T04:05:45;102429.72;;;6.02;90.18
64298;BME280;50639;53.270;7.956;2024-01-25T04:08:10;102429.88;;;5.91;90.77
64298;BME280;50639;53.270;7.956;2024-01-25T04:10:35;102450.44;;;5.91;90.65
64298;BME280;50639;53.270;7.956;2024-01-25T04:13:01;102442.78;;;5.87;90.83
64298;BME280;50639;53.270;7.956;2024-01-25T04:15:27;102455.63;;;5.87;90.61
64298;BME280;50639;53.270;7.956;2024-01-25T04:17:52;102445.47;;;5.78;91.05
64298;BME280;50639;53.270;7.956;2024-01-25T04:20:21;102442.94;;;5.75;91.08
64298;BME280;50639;53.270;7.956;2024-01-25T04:22:47;102451.59;;;5.71;91.10
64298;BME280;50639;53.270;7.956;2024-01-25T04:25:13;102450.78;;;5.65;91.80
64298;BME280;50639;53.270;7.956;2024-01-25T04:27:38;102450.78;;;5.64;92.40
64298;BME280;50639;53.270;7.956;2024-01-25T04:30:05;102452.50;;;5.63;92.03
64298;BME280;50639;53.270;7.956;2024-01-25T04:32:30;102456.00;;;5.59;91.99
64298;BME280;50639;53.270;7.956;2024-01-25T04:34:56;102459.47;;;5.55;91.89
64298;BME280;50639;53.270;7.956;2024-01-25T04:37:21;102455.31;;;5.48;92.62
64298;BME280;50639;53.270;7.956;2024-01-25T04:39:46;102462.25;;;5.40;92.94
64298;BME280;50639;53.270;7.956;2024-01-25T04:42:12;102463.88;;;5.47;92.85
64298;BME280;50639;53.270;7.956;2024-01-25T04:44:37;102464.78;;;5.45;92.82
64298;BME280;50639;53.270;7.956;2024-01-25T04:47:03;102467.28;;;5.48;92.89
64298;BME280;50639;53.270;7.956;2024-01-25T04:49:28;102476.81;;;5.41;92.92
64298;BME280;50639;53.270;7.956;2024-01-25T04:51:53;102472.53;;;5.40;93.56
64298;BME280;50639;53.270;7.956;2024-01-25T04:54:19;102469.97;;;5.40;92.86
64298;BME280;50639;53.270;7.956;2024-01-25T04:56:44;102469.19;;;5.35;94.00
64298;BME280;50639;53.270;7.956;2024-01-25T04:59:10;102473.41;;;5.39;93.61
64298;BME280;50639;53.270;7.956;2024-01-25T05:01:36;102478.53;;;5.39;93.50
64298;BME280;50639;53.270;7.956;2024-01-25T05:04:01;102481.16;;;5.36;93.29
64298;BME280;50639;53.270;7.956;2024-01-25T05:06:27;102469.06;;;5.44;93.29
64298;BME280;50639;53.270;7.956;2024-01-25T05:08:53;102471.56;;;5.49;93.07
64298;BME280;50639;53.270;7.956;2024-01-25T05:11:18;102474.13;;;5.50;93.00
64298;BME280;50639;53.270;7.956;2024-01-25T05:13:44;102473.28;;;5.48;93.45
64298;BME280;50639;53.270;7.956;2024-01-25T05:16:09;102475.84;;;5.48;93.12
64298;BME280;50639;53.270;7.956;2024-01-25T05:18:34;102487.00;;;5.47;93.20
64298;BME280;50639;53.270;7.956;2024-01-25T05:21:00;102485.25;;;5.52;93.58
64298;BME280;50639;53.270;7.956;2024-01-25T05:23:26;102490.28;;;5.58;92.87
64298;BME280;50639;53.270;7.956;2024-01-25T05:25:52;102488.59;;;5.56;92.56
64298;BME280;50639;53.270;7.956;2024-01-25T05:28:18;102490.28;;;5.58;92.91
64298;BME280;50639;53.270;7.956;2024-01-25T05:30:43;102484.38;;;5.53;93.29
64298;BME280;50639;53.270;7.956;2024-01-25T05:33:09;102486.94;;;5.53;93.41
64298;BME280;50639;53.270;7.956;2024-01-25T05:35:34;102489.53;;;5.52;92.54
64298;BME280;50639;53.270;7.956;2024-01-25T05:38:00;102487.94;;;5.42;93.28
64298;BME280;50639;53.270;7.956;2024-01-25T05:40:26;102499.09;;;5.39;93.57
64298;BME280;50639;53.270;7.956;2024-01-25T05:42:51;102502.41;;;5.49;93.73
64298;BME280;50639;53.270;7.956;2024-01-25T05:45:16;102502.38;;;5.52;93.49
64298;BME280;50639;53.270;7.956;2024-01-25T05:47:45;102507.50;;;5.52;93.98
64298;BME280;50639;53.270;7.956;2024-01-25T05:50:10;102507.63;;;5.44;93.48
64298;BME280;50639;53.270;7.956;2024-01-25T05:52:36;102502.50;;;5.43;93.64
64298;BME280;50639;53.270;7.956;2024-01-25T05:55:04;102494.81;;;5.40;93.61
64298;BME280;50639;53.270;7.956;2024-01-25T05:57:29;102495.66;;;5.40;93.91
64298;BME280;50639;53.270;7.956;2024-01-25T05:59:55;102504.31;;;5.33;94.36
64298;BME280;50639;53.270;7.956;2024-01-25T06:02:20;102496.69;;;5.27;93.77
64298;BME280;50639;53.270;7.956;2024-01-25T06:04:45;102501.00;;;5.22;93.64
64298;BME280;50639;53.270;7.956;2024-01-25T06:07:11;102503.56;;;5.22;94.09
64298;BME280;50639;53.270;7.956;2024-01-25T06:09:36;102508.78;;;5.17;93.83
64298;BME280;50639;53.270;7.956;2024-01-25T06:12:21;102505.41;;;5.11;94.43
64298;BME280;50639;53.270;7.956;2024-01-25T06:14:46;102511.44;;;5.07;93.68
64298;BME280;50639;53.270;7.956;2024-01-25T06:17:12;102510.63;;;5.02;94.59
64298;BME280;50639;53.270;7.956;2024-01-25T06:19:37;102515.81;;;4.97;94.48
64298;BME280;50639;53.270;7.956;2024-01-25T06:22:03;102513.28;;;4.92;94.69
64298;BME280;50639;53.270;7.956;2024-01-25T06:24:29;102513.34;;;4.89;95.18
64298;BME280;50639;53.270;7.956;2024-01-25T06:26:54;102521.00;;;4.92;94.38
64298;BME280;50639;53.270;7.956;2024-01-25T06:29:20;102522.69;;;4.97;95.11
64298;BME280;50639;53.270;7.956;2024-01-25T06:31:45;102531.16;;;5.05;94.98
64298;BME280;50639;53.270;7.956;2024-01-25T06:34:11;102524.28;;;5.08;94.92
64298;BME280;50639;53.270;7.956;2024-01-25T06:36:37;102524.28;;;5.08;94.88
64298;BME280;50639;53.270;7.956;2024-01-25T06:39:03;102535.31;;;5.18;94.99
64298;BME280;50639;53.270;7.956;2024-01-25T06:41:32;102531.88;;;5.19;95.34
64298;BME280;50639;53.270;7.956;2024-01-25T06:43:58;102533.53;;;5.21;95.23
64298;BME280;50639;53.270;7.956;2024-01-25T06:46:24;102536.06;;;5.27;94.65
64298;BME280;50639;53.270;7.956;2024-01-25T06:48:50;102535.19;;;5.28;94.57
64298;BME280;50639;53.270;7.956;2024-01-25T06:51:16;102539.50;;;5.25;94.30
64298;BME280;50639;53.270;7.956;2024-01-25T06:53:41;102545.53;;;5.21;94.32
64298;BME280;50639;53.270;7.956;2024-01-25T06:56:07;102541.31;;;5.17;93.88
64298;BME280;50639;53.270;7.956;2024-01-25T06:58:32;102554.19;;;5.11;94.53
64298;BME280;50639;53.270;7.956;2024-01-25T07:00:59;102549.09;;;5.09;95.05
64298;BME280;50639;53.270;7.956;2024-01-25T07:03:24;102544.00;;;5.03;95.71
64298;BME280;50639;53.270;7.956;2024-01-25T07:05:50;102540.66;;;4.97;95.12
64298;BME280;50639;53.270;7.956;2024-01-25T07:08:15;102544.16;;;4.89;95.23
64298;BME280;50639;53.270;7.956;2024-01-25T07:10:41;102557.03;;;4.83;95.69
64298;BME280;50639;53.270;7.956;2024-01-25T07:13:07;102559.63;;;4.80;95.40
64298;BME280;50639;53.270;7.956;2024-01-25T07:15:33;102563.94;;;4.75;96.50
64298;BME280;50639;53.270;7.956;2024-01-25T07:17:58;102563.94;;;4.77;96.12
64298;BME280;50639;53.270;7.956;2024-01-25T07:20:23;102571.59;;;4.80;96.26
64298;BME280;50639;53.270;7.956;2024-01-25T07:22:49;102569.84;;;4.86;95.93
64298;BME280;50639;53.270;7.956;2024-01-25T07:25:14;102574.91;;;4.92;96.33
64298;BME280;50639;53.270;7.956;2024-01-25T07:27:44;102578.38;;;4.91;95.83
64298;BME280;50639;53.270;7.956;2024-01-25T07:30:11;102578.31;;;4.98;95.78
64298;BME280;50639;53.270;7.956;2024-01-25T07:32:37;102584.31;;;4.95;96.05
64298;BME280;50639;53.270;7.956;2024-01-25T07:35:04;102586.00;;;4.98;95.88
64298;BME280;50639;53.270;7.956;2024-01-25T07:37:29;102594.44;;;5.10;95.37
64298;BME280;50639;53.270;7.956;2024-01-25T07:39:55;102598.63;;;5.20;95.74
64298;BME280;50639;53.270;7.956;2024-01-25T07:42:20;102598.59;;;5.26;96.05
64298;BME280;50639;53.270;7.956;2024-01-25T07:44:45;102601.19;;;5.20;95.32
64298;BME280;50639;53.270;7.956;2024-01-25T07:47:11;102603.66;;;5.31;95.35
64298;BME280;50639;53.270;7.956;2024-01-25T07:49:36;102600.22;;;5.34;95.10
64298;BME280;50639;53.270;7.956;2024-01-25T07:52:02;102595.09;;;5.34;94.99
64298;BME280;50639;53.270;7.956;2024-01-25T07:54:27;102591.53;;;5.45;94.90
64298;BME280;50639;53.270;7.956;2024-01-25T07:56:52;102595.78;;;5.48;94.32
64298;BME280;50639;53.270;7.956;2024-01-25T07:59:18;102600.81;;;5.55;94.73
64298;BME280;50639;53.270;7.956;2024-01-25T08:01:43;102594.03;;;5.53;94.38
64298;BME280;50639;53.270;7.956;2024-01-25T08:04:09;102595.75;;;5.51;94.51
64298;BME280;50639;53.270;7.956;2024-01-25T08:06:34;102592.31;;;5.53;94.56
64298;BME280;50639;53.270;7.956;2024-01-25T08:09:00;102587.97;;;5.57;93.85
64298;BME280;50639;53.270;7.956;2024-01-25T08:11:25;102605.84;;;5.66;94.33
64298;BME280;50639;53.270;7.956;2024-01-25T08:13:51;102596.44;;;5.63;93.94
64298;BME280;50639;53.270;7.956;2024-01-25T08:16:16;102590.34;;;5.72;94.22
64298;BME280;50639;53.270;7.956;2024-01-25T08:18:48;102595.47;;;5.74;94.00
64298;BME280;50639;53.270;7.956;2024-01-25T08:21:14;102594.53;;;5.82;93.92
64298;BME280;50639;53.270;7.956;2024-01-25T08:23:40;102597.91;;;5.86;93.00
64298;BME280;50639;53.270;7.956;2024-01-25T08:26:06;102612.50;;;5.88;93.27
64298;BME280;50639;53.270;7.956;2024-01-25T08:28:35;102621.03;;;5.87;92.74
64298;BME280;50639;53.270;7.956;2024-01-25T08:31:01;102628.75;;;5.90;92.43
64298;BME280;50639;53.270;7.956;2024-01-25T08:33:27;102636.41;;;5.95;92.85
64298;BME280;50639;53.270;7.956;2024-01-25T08:35:53;102644.13;;;5.96;92.39
64298;BME280;50639;53.270;7.956;2024-01-25T08:38:18;102638.91;;;5.99;92.94
64298;BME280;50639;53.270;7.956;2024-01-25T08:40:43;102641.38;;;6.09;92.04
64298;BME280;50639;53.270;7.956;2024-01-25T08:43:09;102640.59;;;6.03;92.23
64298;BME280;50639;53.270;7.956;2024-01-25T08:45:34;102632.84;;;6.07;92.46
64298;BME280;50639;53.270;7.956;2024-01-25T08:48:00;102636.19;;;6.13;92.08
64298;BME280;50639;53.270;7.956;2024-01-25T08:50:25;102636.94;;;6.20;91.79
64298;BME280;50639;53.270;7.956;2024-01-25T08:52:51;102632.66;;;6.22;91.62
64298;BME280;50639;53.270;7.956;2024-01-25T08:55:17;102643.66;;;6.33;91.72
64298;BME280;50639;53.270;7.956;2024-01-25T08:57:42;102647.19;;;6.24;91.66
64298;BME280;50639;53.270;7.956;2024-01-25T09:00:08;102645.44;;;6.25;91.49
64298;BME280;50639;53.270;7.956;2024-01-25T09:02:35;102648.06;;;6.23;91.45
64298;BME280;50639;53.270;7.956;2024-01-25T09:05:01;102651.28;;;6.39;91.09
64298;BME280;50639;53.270;7.956;2024-01-25T09:07:27;102640.91;;;6.45;91.57
64298;BME280;50639;53.270;7.956;2024-01-25T09:09:52;102636.47;;;6.53;91.08
64298;BME280;50639;53.270;7.956;2024-01-25T09:12:17;102638.19;;;6.53;90.99
64298;BME280;50639;53.270;7.956;2024-01-25T09:14:43;102631.31;;;6.55;90.74
64298;BME280;50639;53.270;7.956;2024-01-25T09:17:09;102626.06;;;6.61;90.67
64298;BME280;50639;53.270;7.956;2024-01-25T09:19:34;102625.16;;;6.66;90.23
64298;BME280;50639;53.270;7.956;2024-01-25T09:22:00;102623.44;;;6.65;91.03
64298;BME280;50639;53.270;7.956;2024-01-25T09:24:30;102632.88;;;6.65;90.58
64298;BME280;50639;53.270;7.956;2024-01-25T09:26:56;102634.56;;;6.67;89.81
64298;BME280;50639;53.270;7.956;2024-01-25T09:29:24;102637.06;;;6.73;90.31
64298;BME280;50639;53.270;7.956;2024-01-25T09:31:49;102635.34;;;6.72;90.23
64298;BME280;50639;53.270;7.956;2024-01-25T09:34:15;102642.06;;;6.81;89.60
64298;BME280;50639;53.270;7.956;2024-01-25T09:36:40;102647.22;;;6.81;90.02
64298;BME280;50639;53.270;7.956;2024-01-25T09:39:06;102649.03;;;6.76;90.08
64298;BME280;50639;53.270;7.956;2024-01-25T09:41:31;102658.53;;;6.72;89.84
64298;BME280;50639;53.270;7.956;2024-01-25T09:43:56;102668.66;;;6.85;89.95
64298;BME280;50639;53.270;7.956;2024-01-25T09:46:22;102670.28;;;6.89;90.04
64298;BME280;50639;53.270;7.956;2024-01-25T09:48:49;102678.88;;;6.89;89.58
64298;BME280;50639;53.270;7.956;2024-01-25T09:51:14;102691.03;;;6.78;89.78
64298;BME280;50639;53.270;7.956;2024-01-25T09:53:40;102685.88;;;6.79;90.06
64298;BME280;50639;53.270;7.956;2024-01-25T09:56:08;102686.63;;;6.86;89.88
64298;BME280;50639;53.270;7.956;2024-01-25T10:01:03;102692.53;;;6.94;89.69
64298;BME280;50639;53.270;7.956;2024-01-25T10:03:28;102679.69;;;6.93;90.15
64298;BME280;50639;53.270;7.956;2024-01-25T10:05:55;102677.84;;;7.01;90.06
64298;BME280;50639;53.270;7.956;2024-01-25T10:08:21;102679.53;;;7.02;89.12
64298;BME280;50639;53.270;7.956;2024-01-25T10:10:49;102677.75;;;7.05;89.41
64298;BME280;50639;53.270;7.956;2024-01-25T10:13:14;102692.19;;;7.15;89.53
64298;BME280;50639;53.270;7.956;2024-01-25T10:15:40;102686.28;;;7.09;89.37
64298;BME280;50639;53.270;7.956;2024-01-25T10:18:07;102686.94;;;7.22;88.94
64298;BME280;50639;53.270;7.956;2024-01-25T10:20:47;102699.72;;;7.28;89.03
64298;BME280;50639;53.270;7.956;2024-01-25T10:23:12;102694.50;;;7.31;88.68
64298;BME280;50639;53.270;7.956;2024-01-25T10:25:38;102694.72;;;7.20;88.79
64298;BME280;50639;53.270;7.956;2024-01-25T10:28:07;102681.63;;;7.31;89.02
64298;BME280;50639;53.270;7.956;2024-01-25T10:30:34;102680.13;;;7.17;88.39
64298;BME280;50639;53.270;7.956;2024-01-25T10:33:01;102679.31;;;7.15;88.69
64298;BME280;50639;53.270;7.956;2024-01-25T10:35:27;102681.72;;;7.25;88.57
64298;BME280;50639;53.270;7.956;2024-01-25T10:37:53;102681.03;;;7.13;88.79
64298;BME280;50639;53.270;7.956;2024-01-25T10:40:20;102687.16;;;7.08;89.05
64298;BME280;50639;53.270;7.956;2024-01-25T10:42:46;102682.91;;;7.05;89.64
64298;BME280;50639;53.270;7.956;2024-01-25T10:45:12;102684.44;;;7.17;88.99
64298;BME280;50639;53.270;7.956;2024-01-25T10:47:38;102695.44;;;7.27;88.98
64298;BME280;50639;53.270;7.956;2024-01-25T10:50:06;102698.78;;;7.32;89.31
64298;BME280;50639;53.270;7.956;2024-01-25T10:52:36;102704.88;;;7.29;88.92
64298;BME280;50639;53.270;7.956;2024-01-25T10:55:03;102691.88;;;7.35;88.55
64298;BME280;50639;53.270;7.956;2024-01-25T10:57:39;102695.28;;;7.36;88.64
64298;BME280;50639;53.270;7.956;2024-01-25T11:00:10;102690.88;;;7.42;88.42
64298;BME280;50639;53.270;7.956;2024-01-25T11:02:36;102687.97;;;7.61;88.18
64298;BME280;50639;53.270;7.956;2024-01-25T11:05:06;102683.53;;;7.69;87.73
64298;BME280;50639;53.270;7.956;2024-01-25T11:07:41;102680.94;;;7.70;87.43
64298;BME280;50639;53.270;7.956;2024-01-25T11:10:12;102674.91;;;7.70;87.07
64298;BME280;50639;53.270;7.956;2024-01-25T11:12:55;102683.69;;;7.61;87.47
64298;BME280;50639;53.270;7.956;2024-01-25T11:15:22;102675.94;;;7.61;87.39
64298;BME280;50639;53.270;7.956;2024-01-25T11:17:55;102676.97;;;7.52;87.28
64298;BME280;50639;53.270;7.956;2024-01-25T11:20:22;102678.72;;;7.49;87.64
64298;BME280;50639;53.270;7.956;2024-01-25T11:22:48;102675.25;;;7.51;87.61
64298;BME280;50639;53.270;7.956;2024-01-25T11:25:20;102672.94;;;7.38;87.57
64298;BME280;50639;53.270;7.956;2024-01-25T11:27:48;102671.06;;;7.46;87.71
64298;BME280;50639;53.270;7.956;2024-01-25T11:30:15;102674.28;;;7.57;87.53
64298;BME280;50639;53.270;7.956;2024-01-25T11:32:43;102668.94;;;7.68;87.43
64298;BME280;50639;53.270;7.956;2024-01-25T11:35:08;102662.84;;;7.73;87.11
64298;BME280;50639;53.270;7.956;2024-01-25T11:37:36;102662.03;;;7.70;86.49
64298;BME280;50639;53.270;7.956;2024-01-25T11:40:02;102652.25;;;7.85;86.50
64298;BME280;50639;53.270;7.956;2024-01-25T11:42:28;102646.84;;;7.99;86.70
64298;BME280;50639;53.270;7.956;2024-01-25T11:44:56;102644.72;;;8.18;86.20
64298;BME280;50639;53.270;7.956;2024-01-25T11:47:21;102635.31;;;8.15;85.47
64298;BME280;50639;53.270;7.956;2024-01-25T11:49:47;102629.38;;;8.10;85.49
64298;BME280;50639;53.270;7.956;2024-01-25T11:52:12;102633.34;;;7.85;86.04
64298;BME280;50639;53.270;7.956;2024-01-25T11:54:38;102636.69;;;7.90;86.54
64298;BME280;50639;53.270;7.956;2024-01-25T11:57:04;102634.09;;;7.91;86.25
64298;BME280;50639;53.270;7.956;2024-01-25T11:59:30;102637.50;;;7.92;86.24
64298;BME280;50639;53.270;7.956;2024-01-25T12:01:56;102635.00;;;7.89;86.27
64298;BME280;50639;53.270;7.956;2024-01-25T12:04:21;102636.03;;;7.80;86.71
64298;BME280;50639;53.270;7.956;2024-01-25T12:06:47;102637.22;;;7.64;86.88
64298;BME280;50639;53.270;7.956;2024-01-25T12:09:15;102646.81;;;7.56;87.22
64298;BME280;50639;53.270;7.956;2024-01-25T12:11:41;102646.81;;;7.56;87.30
64298;BME280;50639;53.270;7.956;2024-01-25T12:14:10;102643.31;;;7.59;87.47
64298;BME280;50639;53.270;7.956;2024-01-25T12:16:36;102651.13;;;7.55;87.13
64298;BME280;50639;53.270;7.956;2024-01-25T12:19:01;102646.00;;;7.54;87.83
64298;BME280;50639;53.270;7.956;2024-01-25T12:21:26;102649.31;;;7.59;87.79
64298;BME280;50639;53.270;7.956;2024-01-25T12:23:52;102647.69;;;7.55;87.79
64298;BME280;50639;53.270;7.956;2024-01-25T12:26:17;102641.59;;;7.59;87.86
64298;BME280;50639;53.270;7.956;2024-01-25T12:28:43;102637.38;;;7.55;87.30
64298;BME280;50639;53.270;7.956;2024-01-25T12:31:08;102636.50;;;7.56;87.16
64298;BME280;50639;53.270;7.956;2024-01-25T12:33:34;102638.19;;;7.57;87.44
64298;BME280;50639;53.270;7.956;2024-01-25T12:36:02;102627.78;;;7.63;87.12
64298;BME280;50639;53.270;7.956;2024-01-25T12:38:28;102632.78;;;7.71;87.49
64298;BME280;50639;53.270;7.956;2024-01-25T12:40:56;102637.66;;;7.84;87.53
64298;BME280;50639;53.270;7.956;2024-01-25T12:43:22;102636.78;;;7.85;87.03
64298;BME280;50639;53.270;7.956;2024-01-25T12:45:47;102633.13;;;7.96;87.01
64298;BME280;50639;53.270;7.956;2024-01-25T12:48:13;102626.84;;;8.09;86.11
64298;BME280;50639;53.270;7.956;2024-01-25T12:50:38;102622.25;;;8.23;85.40
64298;BME280;50639;53.270;7.956;2024-01-25T12:53:04;102617.06;;;8.24;84.86
64298;BME280;50639;53.270;7.956;2024-01-25T12:55:30;102617.97;;;8.20;84.60